CDT,Max TemperatureF,Mean TemperatureF,Min TemperatureF,Max Dew PointF,MeanDew PointF,Min DewpointF,Max Humidity, Mean Humidity, Min Humidity, Max Sea Level PressureIn, Mean Sea Level PressureIn, Min Sea Level PressureIn, Max VisibilityMiles, Mean VisibilityMiles, Min VisibilityMiles, Max Wind SpeedMPH, Mean Wind SpeedMPH, Max Gust SpeedMPH,PrecipitationIn, CloudCover, Events, WindDirDegrees
2012-10-1,67,54,40,49,44,41,97,72,40,29.94,29.88,29.83,10,10,8,13,4,18,0.00,0,,41
2012-10-2,71,58,45,54,47,42,97,67,38,29.91,29.86,29.82,10,10,6,18,9,24,0.00,1,,28
2012-10-3,63,60,56,61,58,55,100,91,82,30.03,29.94,29.88,10,6,1,13,4,16,0.09,8,Rain,338
2012-10-4,77,62,46,57,52,38,97,79,48,30.12,30.04,29.98,10,9,3,24,10,30,0.14,3,Rain,224
2012-10-5,50,43,36,35,30,22,79,58,39,30.17,30.12,30.06,10,10,8,17,9,23,T,4,Rain,275
2012-10-6,50,41,31,28,26,23,75,56,44,30.19,30.15,30.08,10,10,10,18,9,24,0.00,4,,301
2012-10-7,50,40,30,29,25,18,75,54,29,30.20,30.17,30.13,10,10,10,14,7,21,0.00,3,,276
2012-10-8,60,44,27,33,28,23,85,56,29,30.16,30.09,30.00,10,10,10,24,12,32,0.00,0,,190
2012-10-9,65,53,40,42,38,33,93,64,34,29.99,29.90,29.80,10,9,5,28,15,36,0.17,4,Rain,224
2012-10-10,51,41,31,39,31,24,93,69,39,30.19,30.09,29.93,10,10,10,24,9,31,0.00,1,,275
2012-10-11,66,48,30,38,32,28,88,59,31,30.19,30.12,30.05,10,10,10,28,13,33,0.01,1,,208
2012-10-12,54,43,31,42,32,26,93,62,45,30.45,30.36,30.28,10,10,10,18,8,22,0.00,1,,67
2012-10-13,65,54,43,63,54,29,100,90,53,30.25,29.94,29.79,10,5,2,21,11,25,0.24,7,Rain,185
2012-10-14,69,58,47,63,58,44,100,91,78,29.79,29.58,29.42,10,6,1,35,14,43,0.96,8,Rain-Thunderstorm,209
2012-10-15,60,50,39,44,40,37,93,74,44,29.96,29.90,29.79,10,10,10,17,6,22,0.00,2,,295
2012-10-16,69,54,38,53,45,37,93,67,45,29.96,29.73,29.55,10,10,7,26,13,38,0.00,1,,170
2012-10-17,67,60,52,59,54,49,100,84,60,29.55,29.39,29.26,10,7,1,26,14,40,0.83,6,Rain,182
2012-10-18,52,48,43,49,41,36,93,82,56,29.50,29.43,29.34,10,10,7,25,14,31,0.09,7,Rain,212
2012-10-19,50,45,40,45,43,40,96,90,77,29.66,29.49,29.43,10,9,4,15,5,18,0.14,7,Rain,241
2012-10-20,58,46,34,43,39,34,100,84,59,29.95,29.81,29.67,10,10,8,14,5,18,0.00,1,,255
2012-10-21,68,51,33,49,40,34,100,84,49,30.04,29.98,29.95,10,6,0,16,6,20,0.00,0,Fog,158
2012-10-22,64,57,49,63,58,46,100,92,80,29.97,29.92,29.88,10,7,2,17,6,24,0.40,7,Rain-Thunderstorm,172
2012-10-23,69,64,58,66,62,57,100,93,83,29.92,29.90,29.86,10,6,0,16,6,20,0.13,7,Fog-Rain,157
2012-10-24,78,69,59,65,62,58,97,82,66,29.94,29.89,29.83,10,9,5,21,11,25,0.00,3,,174
2012-10-25,74,59,43,62,52,38,93,82,66,30.05,29.82,29.67,10,9,3,29,17,39,0.18,6,Rain,243
2012-10-26,50,42,33,33,29,27,78,61,44,30.33,30.27,30.13,10,10,10,12,9,15,0.00,1,,339
2012-10-27,47,38,28,28,27,25,85,66,44,30.35,30.30,30.26,10,10,10,16,8,20,0.00,1,,5
2012-10-28,50,41,32,32,29,25,82,66,50,30.31,30.28,30.26,10,10,10,22,11,28,0.00,3,,8
2012-10-29,53,43,33,32,29,26,82,62,38,30.31,30.23,30.07,10,10,10,21,13,28,0.00,0,,359
2012-10-30,47,42,37,27,25,21,67,54,42,30.05,29.88,29.80,10,10,10,29,18,37,0.00,1,,344
2012-10-31,49,41,32,31,26,18,73,60,48,29.88,29.84,29.81,10,10,10,21,12,26,0.00,1,,325